sensor_id;sensor_type;location;lat;lon;timestamp;P1;durP1;ratioP1;P2;durP2;ratioP2
66927;SDS011;59882;45.624;11.698;2024-03-02T00:00:08;12.50;;;2.45;;
66927;SDS011;59882;45.624;11.698;2024-03-02T00:02:43;10.85;;;2.70;;
66927;SDS011;59882;45.624;11.698;2024-03-02T00:05:27;17.67;;;2.63;;
66927;SDS011;59882;45.624;11.698;2024-03-02T00:10:23;12.30;;;2.85;;
66927;SDS011;59882;45.624;11.698;2024-03-02T00:12:54;14.20;;;2.97;;
66927;SDS011;59882;45.624;11.698;2024-03-02T00:20:57;14.52;;;3.17;;
66927;SDS011;59882;45.624;11.698;2024-03-02T00:23:24;11.75;;;2.40;;
66927;SDS011;59882;45.624;11.698;2024-03-02T00:25:54;11.13;;;2.78;;
66927;SDS011;59882;45.624;11.698;2024-03-02T00:28:23;12.77;;;2.47;;
66927;SDS011;59882;45.624;11.698;2024-03-02T00:33:22;16.52;;;3.10;;
66927;SDS011;59882;45.624;11.698;2024-03-02T00:35:49;15.68;;;2.85;;
66927;SDS011;59882;45.624;11.698;2024-03-02T00:38:15;12.85;;;2.67;;
66927;SDS011;59882;45.624;11.698;2024-03-02T00:40:44;15.90;;;3.13;;
66927;SDS011;59882;45.624;11.698;2024-03-02T00:43:19;11.23;;;2.40;;
66927;SDS011;59882;45.624;11.698;2024-03-02T00:46:12;13.40;;;3.05;;
66927;SDS011;59882;45.624;11.698;2024-03-02T00:48:59;11.15;;;2.80;;
66927;SDS011;59882;45.624;11.698;2024-03-02T00:51:27;18.10;;;3.13;;
66927;SDS011;59882;45.624;11.698;2024-03-02T00:53:55;18.30;;;3.28;;
66927;SDS011;59882;45.624;11.698;2024-03-02T00:56:23;14.10;;;2.60;;
66927;SDS011;59882;45.624;11.698;2024-03-02T00:58:49;11.30;;;3.28;;
66927;SDS011;59882;45.624;11.698;2024-03-02T01:01:15;14.52;;;2.60;;
66927;SDS011;59882;45.624;11.698;2024-03-02T01:03:41;11.82;;;2.97;;
66927;SDS011;59882;45.624;11.698;2024-03-02T01:06:07;17.80;;;3.35;;
66927;SDS011;59882;45.624;11.698;2024-03-02T01:08:34;11.53;;;2.60;;
66927;SDS011;59882;45.624;11.698;2024-03-02T01:11:00;12.88;;;2.30;;
66927;SDS011;59882;45.624;11.698;2024-03-02T01:13:26;15.93;;;2.67;;
66927;SDS011;59882;45.624;11.698;2024-03-02T01:15:52;12.02;;;2.65;;
66927;SDS011;59882;45.624;11.698;2024-03-02T01:18:18;14.83;;;2.33;;
66927;SDS011;59882;45.624;11.698;2024-03-02T01:20:44;17.15;;;2.40;;
66927;SDS011;59882;45.624;11.698;2024-03-02T01:23:10;12.63;;;2.03;;
66927;SDS011;59882;45.624;11.698;2024-03-02T01:25:36;11.40;;;2.05;;
66927;SDS011;59882;45.624;11.698;2024-03-02T01:28:02;15.25;;;3.25;;
66927;SDS011;59882;45.624;11.698;2024-03-02T01:30:28;12.73;;;2.10;;
66927;SDS011;59882;45.624;11.698;2024-03-02T01:32:53;14.35;;;3.25;;
66927;SDS011;59882;45.624;11.698;2024-03-02T01:35:19;15.50;;;2.70;;
66927;SDS011;59882;45.624;11.698;2024-03-02T01:37:45;11.60;;;2.70;;
66927;SDS011;59882;45.624;11.698;2024-03-02T01:40:10;13.80;;;2.70;;
66927;SDS011;59882;45.624;11.698;2024-03-02T01:42:36;11.77;;;2.47;;
66927;SDS011;59882;45.624;11.698;2024-03-02T01:45:05;13.88;;;2.20;;
66927;SDS011;59882;45.624;11.698;2024-03-02T01:47:32;11.90;;;2.47;;
66927;SDS011;59882;45.624;11.698;2024-03-02T01:49:58;14.85;;;2.55;;
66927;SDS011;59882;45.624;11.698;2024-03-02T01:52:24;12.70;;;2.30;;
66927;SDS011;59882;45.624;11.698;2024-03-02T01:54:49;15.27;;;2.27;;
66927;SDS011;59882;45.624;11.698;2024-03-02T01:57:15;8.63;;;1.90;;
66927;SDS011;59882;45.624;11.698;2024-03-02T01:59:41;11.65;;;2.65;;
66927;SDS011;59882;45.624;11.698;2024-03-02T02:02:07;10.05;;;2.42;;
66927;SDS011;59882;45.624;11.698;2024-03-02T02:04:33;14.33;;;3.00;;
66927;SDS011;59882;45.624;11.698;2024-03-02T02:06:58;12.27;;;2.92;;
66927;SDS011;59882;45.624;11.698;2024-03-02T02:09:25;14.80;;;2.67;;
66927;SDS011;59882;45.624;11.698;2024-03-02T02:11:51;12.05;;;2.13;;
66927;SDS011;59882;45.624;11.698;2024-03-02T02:14:17;12.02;;;2.53;;
66927;SDS011;59882;45.624;11.698;2024-03-02T02:16:42;13.27;;;2.70;;
66927;SDS011;59882;45.624;11.698;2024-03-02T02:19:08;19.80;;;2.80;;
66927;SDS011;59882;45.624;11.698;2024-03-02T02:21:34;10.57;;;2.30;;
66927;SDS011;59882;45.624;11.698;2024-03-02T02:24:00;12.47;;;2.53;;
66927;SDS011;59882;45.624;11.698;2024-03-02T02:26:28;12.95;;;2.05;;
66927;SDS011;59882;45.624;11.698;2024-03-02T02:28:54;10.73;;;2.45;;
66927;SDS011;59882;45.624;11.698;2024-03-02T02:31:19;9.57;;;1.87;;
66927;SDS011;59882;45.624;11.698;2024-03-02T02:33:45;13.18;;;2.22;;
66927;SDS011;59882;45.624;11.698;2024-03-02T02:36:10;12.10;;;2.07;;
66927;SDS011;59882;45.624;11.698;2024-03-02T02:38:38;15.37;;;2.40;;
66927;SDS011;59882;45.624;11.698;2024-03-02T02:41:07;13.07;;;2.40;;
66927;SDS011;59882;45.624;11.698;2024-03-02T02:43:32;12.20;;;2.00;;
66927;SDS011;59882;45.624;11.698;2024-03-02T02:45:58;9.87;;;1.90;;
66927;SDS011;59882;45.624;11.698;2024-03-02T02:48:23;14.90;;;2.22;;
66927;SDS011;59882;45.624;11.698;2024-03-02T02:50:49;9.93;;;2.07;;
66927;SDS011;59882;45.624;11.698;2024-03-02T02:53:15;11.37;;;1.70;;
66927;SDS011;59882;45.624;11.698;2024-03-02T02:55:40;10.88;;;1.88;;
66927;SDS011;59882;45.624;11.698;2024-03-02T02:58:08;9.70;;;1.75;;
66927;SDS011;59882;45.624;11.698;2024-03-02T03:00:34;8.43;;;1.60;;
66927;SDS011;59882;45.624;11.698;2024-03-02T03:03:01;11.88;;;1.88;;
66927;SDS011;59882;45.624;11.698;2024-03-02T03:05:27;15.50;;;2.95;;
66927;SDS011;59882;45.624;11.698;2024-03-02T03:07:53;10.75;;;1.50;;
66927;SDS011;59882;45.624;11.698;2024-03-02T03:10:18;10.03;;;1.63;;
66927;SDS011;59882;45.624;11.698;2024-03-02T03:12:47;13.25;;;1.77;;
66927;SDS011;59882;45.624;11.698;2024-03-02T03:15:13;10.13;;;1.38;;
66927;SDS011;59882;45.624;11.698;2024-03-02T03:17:39;10.03;;;1.90;;
66927;SDS011;59882;45.624;11.698;2024-03-02T03:20:05;13.35;;;1.88;;
66927;SDS011;59882;45.624;11.698;2024-03-02T03:22:35;10.13;;;1.70;;
66927;SDS011;59882;45.624;11.698;2024-03-02T03:25:01;10.13;;;2.22;;
66927;SDS011;59882;45.624;11.698;2024-03-02T03:27:27;14.70;;;2.23;;
66927;SDS011;59882;45.624;11.698;2024-03-02T03:29:52;9.52;;;1.98;;
66927;SDS011;59882;45.624;11.698;2024-03-02T03:32:19;10.67;;;1.60;;
66927;SDS011;59882;45.624;11.698;2024-03-02T03:34:44;12.15;;;1.73;;
66927;SDS011;59882;45.624;11.698;2024-03-02T03:37:10;12.67;;;2.00;;
66927;SDS011;59882;45.624;11.698;2024-03-02T03:39:36;16.73;;;2.20;;
66927;SDS011;59882;45.624;11.698;2024-03-02T03:42:02;13.43;;;2.37;;
66927;SDS011;59882;45.624;11.698;2024-03-02T03:44:28;7.03;;;1.50;;
66927;SDS011;59882;45.624;11.698;2024-03-02T03:46:53;8.73;;;1.58;;
66927;SDS011;59882;45.624;11.698;2024-03-02T03:49:19;9.43;;;2.00;;
66927;SDS011;59882;45.624;11.698;2024-03-02T03:51:45;12.88;;;1.88;;
66927;SDS011;59882;45.624;11.698;2024-03-02T03:54:10;9.70;;;2.10;;
66927;SDS011;59882;45.624;11.698;2024-03-02T03:56:36;9.52;;;2.10;;
66927;SDS011;59882;45.624;11.698;2024-03-02T03:59:02;6.53;;;1.83;;
66927;SDS011;59882;45.624;11.698;2024-03-02T04:01:29;13.10;;;2.53;;
66927;SDS011;59882;45.624;11.698;2024-03-02T04:03:56;15.05;;;2.42;;
66927;SDS011;59882;45.624;11.698;2024-03-02T04:06:23;12.77;;;2.08;;
66927;SDS011;59882;45.624;11.698;2024-03-02T04:08:48;12.37;;;2.80;;
66927;SDS011;59882;45.624;11.698;2024-03-02T04:11:14;18.88;;;2.55;;
66927;SDS011;59882;45.624;11.698;2024-03-02T04:13:40;12.43;;;2.00;;
66927;SDS011;59882;45.624;11.698;2024-03-02T04:16:05;14.35;;;2.58;;
66927;SDS011;59882;45.624;11.698;2024-03-02T04:18:31;8.23;;;1.77;;
66927;SDS011;59882;45.624;11.698;2024-03-02T04:20:57;11.45;;;2.25;;
66927;SDS011;59882;45.624;11.698;2024-03-02T04:23:24;9.10;;;2.00;;
66927;SDS011;59882;45.624;11.698;2024-03-02T04:25:50;13.03;;;2.47;;
66927;SDS011;59882;45.624;11.698;2024-03-02T04:28:16;11.43;;;2.00;;
66927;SDS011;59882;45.624;11.698;2024-03-02T04:30:41;12.37;;;2.20;;
66927;SDS011;59882;45.624;11.698;2024-03-02T04:33:07;16.10;;;2.53;;
66927;SDS011;59882;45.624;11.698;2024-03-02T04:35:35;10.05;;;2.28;;
66927;SDS011;59882;45.624;11.698;2024-03-02T04:38:03;10.77;;;1.90;;
66927;SDS011;59882;45.624;11.698;2024-03-02T04:40:29;12.48;;;2.70;;
66927;SDS011;59882;45.624;11.698;2024-03-02T04:42:54;11.13;;;2.30;;
66927;SDS011;59882;45.624;11.698;2024-03-02T04:45:20;11.63;;;2.45;;
66927;SDS011;59882;45.624;11.698;2024-03-02T04:47:46;10.43;;;2.20;;
66927;SDS011;59882;45.624;11.698;2024-03-02T04:50:11;13.70;;;2.57;;
66927;SDS011;59882;45.624;11.698;2024-03-02T04:52:37;13.85;;;2.47;;
66927;SDS011;59882;45.624;11.698;2024-03-02T04:55:03;10.60;;;2.00;;
66927;SDS011;59882;45.624;11.698;2024-03-02T04:57:42;12.38;;;2.10;;
66927;SDS011;59882;45.624;11.698;2024-03-02T05:00:08;12.32;;;1.90;;
66927;SDS011;59882;45.624;11.698;2024-03-02T05:02:34;11.95;;;2.05;;
66927;SDS011;59882;45.624;11.698;2024-03-02T05:05:00;11.60;;;2.40;;
66927;SDS011;59882;45.624;11.698;2024-03-02T05:07:26;9.73;;;2.38;;
66927;SDS011;59882;45.624;11.698;2024-03-02T05:09:51;9.77;;;2.27;;
66927;SDS011;59882;45.624;11.698;2024-03-02T05:12:17;10.02;;;2.28;;
66927;SDS011;59882;45.624;11.698;2024-03-02T05:15:01;10.77;;;2.47;;
66927;SDS011;59882;45.624;11.698;2024-03-02T05:17:27;12.27;;;2.13;;
66927;SDS011;59882;45.624;11.698;2024-03-02T05:19:53;10.43;;;2.50;;
66927;SDS011;59882;45.624;11.698;2024-03-02T05:22:18;17.75;;;2.85;;
66927;SDS011;59882;45.624;11.698;2024-03-02T05:24:44;10.47;;;2.23;;
66927;SDS011;59882;45.624;11.698;2024-03-02T05:27:09;14.57;;;2.70;;
66927;SDS011;59882;45.624;11.698;2024-03-02T05:29:35;10.83;;;2.40;;
66927;SDS011;59882;45.624;11.698;2024-03-02T05:32:01;11.03;;;2.23;;
66927;SDS011;59882;45.624;11.698;2024-03-02T05:34:26;8.82;;;2.25;;
66927;SDS011;59882;45.624;11.698;2024-03-02T05:36:52;11.60;;;2.40;;
66927;SDS011;59882;45.624;11.698;2024-03-02T05:39:18;10.70;;;2.45;;
66927;SDS011;59882;45.624;11.698;2024-03-02T05:41:43;9.53;;;2.47;;
66927;SDS011;59882;45.624;11.698;2024-03-02T05:44:09;9.47;;;2.53;;
66927;SDS011;59882;45.624;11.698;2024-03-02T05:46:35;7.80;;;2.23;;
66927;SDS011;59882;45.624;11.698;2024-03-02T05:49:00;10.77;;;2.45;;
66927;SDS011;59882;45.624;11.698;2024-03-02T05:51:26;10.97;;;2.43;;
66927;SDS011;59882;45.624;11.698;2024-03-02T05:53:51;14.73;;;3.47;;
66927;SDS011;59882;45.624;11.698;2024-03-02T05:56:17;12.97;;;2.30;;
66927;SDS011;59882;45.624;11.698;2024-03-02T05:58:43;12.43;;;2.72;;
66927;SDS011;59882;45.624;11.698;2024-03-02T06:01:22;16.50;;;3.40;;
66927;SDS011;59882;45.624;11.698;2024-03-02T06:03:53;11.25;;;3.17;;
66927;SDS011;59882;45.624;11.698;2024-03-02T06:06:20;14.30;;;3.25;;
66927;SDS011;59882;45.624;11.698;2024-03-02T06:08:46;11.55;;;2.95;;
66927;SDS011;59882;45.624;11.698;2024-03-02T06:11:11;13.47;;;2.90;;
66927;SDS011;59882;45.624;11.698;2024-03-02T06:13:37;10.53;;;2.40;;
66927;SDS011;59882;45.624;11.698;2024-03-02T06:16:02;10.10;;;2.75;;
66927;SDS011;59882;45.624;11.698;2024-03-02T06:18:28;8.53;;;2.07;;
66927;SDS011;59882;45.624;11.698;2024-03-02T06:20:54;13.23;;;2.55;;
66927;SDS011;59882;45.624;11.698;2024-03-02T06:23:19;13.00;;;2.73;;
66927;SDS011;59882;45.624;11.698;2024-03-02T06:25:45;8.90;;;2.40;;
66927;SDS011;59882;45.624;11.698;2024-03-02T06:28:11;12.67;;;2.77;;
66927;SDS011;59882;45.624;11.698;2024-03-02T06:30:36;15.67;;;2.83;;
66927;SDS011;59882;45.624;11.698;2024-03-02T06:33:02;10.63;;;2.33;;
66927;SDS011;59882;45.624;11.698;2024-03-02T06:35:28;8.20;;;2.67;;
66927;SDS011;59882;45.624;11.698;2024-03-02T06:37:54;10.87;;;2.63;;
66927;SDS011;59882;45.624;11.698;2024-03-02T06:40:20;12.35;;;2.60;;
66927;SDS011;59882;45.624;11.698;2024-03-02T06:42:46;11.70;;;2.23;;
66927;SDS011;59882;45.624;11.698;2024-03-02T06:45:12;9.25;;;2.88;;
66927;SDS011;59882;45.624;11.698;2024-03-02T06:47:38;12.07;;;3.50;;
66927;SDS011;59882;45.624;11.698;2024-03-02T06:50:03;9.35;;;2.90;;
66927;SDS011;59882;45.624;11.698;2024-03-02T06:52:29;12.60;;;3.43;;
66927;SDS011;59882;45.624;11.698;2024-03-02T06:54:55;7.43;;;2.67;;
66927;SDS011;59882;45.624;11.698;2024-03-02T06:57:20;10.40;;;2.73;;
66927;SDS011;59882;45.624;11.698;2024-03-02T06:59:46;9.13;;;2.17;;
66927;SDS011;59882;45.624;11.698;2024-03-02T07:02:15;12.80;;;2.65;;
66927;SDS011;59882;45.624;11.698;2024-03-02T07:04:40;9.97;;;3.00;;
66927;SDS011;59882;45.624;11.698;2024-03-02T07:07:06;11.33;;;2.90;;
66927;SDS011;59882;45.624;11.698;2024-03-02T07:09:31;8.00;;;2.47;;
66927;SDS011;59882;45.624;11.698;2024-03-02T07:11:57;8.77;;;2.00;;
66927;SDS011;59882;45.624;11.698;2024-03-02T07:14:23;8.33;;;1.57;;
66927;SDS011;59882;45.624;11.698;2024-03-02T07:17:08;10.38;;;2.30;;
66927;SDS011;59882;45.624;11.698;2024-03-02T07:19:35;8.05;;;2.13;;
66927;SDS011;59882;45.624;11.698;2024-03-02T07:22:01;14.18;;;2.35;;
66927;SDS011;59882;45.624;11.698;2024-03-02T07:24:30;10.10;;;2.70;;
66927;SDS011;59882;45.624;11.698;2024-03-02T07:26:56;9.43;;;2.20;;
66927;SDS011;59882;45.624;11.698;2024-03-02T07:29:21;9.97;;;2.17;;
66927;SDS011;59882;45.624;11.698;2024-03-02T07:31:47;8.90;;;2.67;;
66927;SDS011;59882;45.624;11.698;2024-03-02T07:34:13;12.23;;;2.63;;
66927;SDS011;59882;45.624;11.698;2024-03-02T07:36:38;9.60;;;2.70;;
66927;SDS011;59882;45.624;11.698;2024-03-02T07:39:04;7.00;;;2.00;;
66927;SDS011;59882;45.624;11.698;2024-03-02T07:41:30;8.88;;;2.53;;
66927;SDS011;59882;45.624;11.698;2024-03-02T07:43:56;11.97;;;2.73;;
66927;SDS011;59882;45.624;11.698;2024-03-02T07:46:21;9.48;;;2.47;;
66927;SDS011;59882;45.624;11.698;2024-03-02T07:48:47;9.20;;;2.17;;
66927;SDS011;59882;45.624;11.698;2024-03-02T07:51:14;12.02;;;2.50;;
66927;SDS011;59882;45.624;11.698;2024-03-02T07:53:40;8.00;;;2.37;;
66927;SDS011;59882;45.624;11.698;2024-03-02T07:56:05;11.37;;;2.33;;
66927;SDS011;59882;45.624;11.698;2024-03-02T07:58:31;11.00;;;2.70;;
66927;SDS011;59882;45.624;11.698;2024-03-02T08:00:58;8.02;;;2.30;;
66927;SDS011;59882;45.624;11.698;2024-03-02T08:03:26;9.43;;;2.80;;
66927;SDS011;59882;45.624;11.698;2024-03-02T08:05:52;10.10;;;2.80;;
66927;SDS011;59882;45.624;11.698;2024-03-02T08:08:18;13.13;;;3.10;;
66927;SDS011;59882;45.624;11.698;2024-03-02T08:10:43;15.73;;;3.60;;
66927;SDS011;59882;45.624;11.698;2024-03-02T08:13:09;11.83;;;3.50;;
66927;SDS011;59882;45.624;11.698;2024-03-02T08:15:34;12.10;;;3.80;;
66927;SDS011;59882;45.624;11.698;2024-03-02T08:18:00;8.27;;;3.30;;
66927;SDS011;59882;45.624;11.698;2024-03-02T08:20:26;10.70;;;3.23;;
66927;SDS011;59882;45.624;11.698;2024-03-02T08:22:51;10.93;;;3.80;;
66927;SDS011;59882;45.624;11.698;2024-03-02T08:25:20;7.63;;;2.50;;
66927;SDS011;59882;45.624;11.698;2024-03-02T08:27:46;10.32;;;2.70;;
66927;SDS011;59882;45.624;11.698;2024-03-02T08:30:12;9.17;;;3.10;;
66927;SDS011;59882;45.624;11.698;2024-03-02T08:32:38;11.82;;;2.90;;
66927;SDS011;59882;45.624;11.698;2024-03-02T08:35:04;8.93;;;3.20;;
66927;SDS011;59882;45.624;11.698;2024-03-02T08:37:30;13.53;;;3.80;;
66927;SDS011;59882;45.624;11.698;2024-03-02T08:39:55;9.35;;;3.63;;
66927;SDS011;59882;45.624;11.698;2024-03-02T08:42:21;12.73;;;4.23;;
66927;SDS011;59882;45.624;11.698;2024-03-02T08:44:47;10.05;;;3.70;;
66927;SDS011;59882;45.624;11.698;2024-03-02T08:47:13;11.52;;;4.53;;
66927;SDS011;59882;45.624;11.698;2024-03-02T08:49:39;11.13;;;4.87;;
66927;SDS011;59882;45.624;11.698;2024-03-02T08:52:04;14.85;;;5.18;;
66927;SDS011;59882;45.624;11.698;2024-03-02T08:54:30;11.10;;;3.70;;
66927;SDS011;59882;45.624;11.698;2024-03-02T08:56:57;8.00;;;3.10;;
66927;SDS011;59882;45.624;11.698;2024-03-02T08:59:23;9.57;;;3.40;;
66927;SDS011;59882;45.624;11.698;2024-03-02T09:01:50;8.18;;;3.05;;
66927;SDS011;59882;45.624;11.698;2024-03-02T09:04:15;11.73;;;3.88;;
66927;SDS011;59882;45.624;11.698;2024-03-02T09:06:41;8.40;;;3.30;;
66927;SDS011;59882;45.624;11.698;2024-03-02T09:09:07;11.65;;;4.07;;
66927;SDS011;59882;45.624;11.698;2024-03-02T09:11:33;11.00;;;4.05;;
66927;SDS011;59882;45.624;11.698;2024-03-02T09:13:59;8.93;;;2.57;;
66927;SDS011;59882;45.624;11.698;2024-03-02T09:16:25;10.83;;;2.90;;
66927;SDS011;59882;45.624;11.698;2024-03-02T09:18:55;7.82;;;2.53;;
66927;SDS011;59882;45.624;11.698;2024-03-02T09:21:21;9.13;;;3.17;;
66927;SDS011;59882;45.624;11.698;2024-03-02T09:23:47;9.55;;;2.58;;
66927;SDS011;59882;45.624;11.698;2024-03-02T09:26:13;7.88;;;2.97;;
66927;SDS011;59882;45.624;11.698;2024-03-02T09:28:42;9.00;;;3.73;;
66927;SDS011;59882;45.624;11.698;2024-03-02T09:31:08;8.18;;;3.00;;
66927;SDS011;59882;45.624;11.698;2024-03-02T09:33:34;11.93;;;3.88;;
66927;SDS011;59882;45.624;11.698;2024-03-02T09:35:59;7.40;;;3.00;;
66927;SDS011;59882;45.624;11.698;2024-03-02T09:38:25;9.18;;;3.58;;
66927;SDS011;59882;45.624;11.698;2024-03-02T09:40:51;7.43;;;2.80;;
66927;SDS011;59882;45.624;11.698;2024-03-02T09:43:16;8.13;;;3.10;;
66927;SDS011;59882;45.624;11.698;2024-03-02T09:45:42;10.75;;;3.33;;
66927;SDS011;59882;45.624;11.698;2024-03-02T09:48:09;9.25;;;2.63;;
66927;SDS011;59882;45.624;11.698;2024-03-02T09:50:35;11.20;;;2.30;;
66927;SDS011;59882;45.624;11.698;2024-03-02T09:53:01;7.43;;;2.40;;
66927;SDS011;59882;45.624;11.698;2024-03-02T09:55:27;7.68;;;2.30;;
66927;SDS011;59882;45.624;11.698;2024-03-02T09:57:53;8.57;;;2.40;;
66927;SDS011;59882;45.624;11.698;2024-03-02T10:00:18;8.73;;;2.00;;
66927;SDS011;59882;45.624;11.698;2024-03-02T10:02:44;10.90;;;3.40;;
66927;SDS011;59882;45.624;11.698;2024-03-02T10:05:11;6.50;;;2.60;;
66927;SDS011;59882;45.624;11.698;2024-03-02T10:07:37;8.55;;;2.50;;
66927;SDS011;59882;45.624;11.698;2024-03-02T10:10:15;8.50;;;2.50;;
66927;SDS011;59882;45.624;11.698;2024-03-02T10:12:41;8.23;;;2.90;;
66927;SDS011;59882;45.624;11.698;2024-03-02T10:15:07;7.22;;;3.13;;
66927;SDS011;59882;45.624;11.698;2024-03-02T10:17:34;10.43;;;3.45;;
66927;SDS011;59882;45.624;11.698;2024-03-02T10:20:11;8.77;;;3.17;;
66927;SDS011;59882;45.624;11.698;2024-03-02T10:22:46;9.05;;;3.10;;
66927;SDS011;59882;45.624;11.698;2024-03-02T10:25:27;8.80;;;3.10;;
66927;SDS011;59882;45.624;11.698;2024-03-02T10:28:00;11.47;;;2.33;;
66927;SDS011;59882;45.624;11.698;2024-03-02T10:30:26;9.38;;;2.60;;
66927;SDS011;59882;45.624;11.698;2024-03-02T10:32:52;8.68;;;2.40;;
66927;SDS011;59882;45.624;11.698;2024-03-02T10:35:21;7.68;;;2.50;;
66927;SDS011;59882;45.624;11.698;2024-03-02T10:37:48;6.57;;;2.50;;
66927;SDS011;59882;45.624;11.698;2024-03-02T10:40:14;8.90;;;3.07;;
66927;SDS011;59882;45.624;11.698;2024-03-02T10:42:41;9.90;;;3.47;;
66927;SDS011;59882;45.624;11.698;2024-03-02T10:45:08;11.35;;;3.40;;
66927;SDS011;59882;45.624;11.698;2024-03-02T10:47:36;7.27;;;3.57;;
66927;SDS011;59882;45.624;11.698;2024-03-02T10:50:04;11.38;;;4.00;;
66927;SDS011;59882;45.624;11.698;2024-03-02T10:52:36;11.18;;;3.88;;
66927;SDS011;59882;45.624;11.698;2024-03-02T10:55:04;10.60;;;3.45;;
66927;SDS011;59882;45.624;11.698;2024-03-02T10:57:37;10.30;;;4.00;;
66927;SDS011;59882;45.624;11.698;2024-03-02T11:00:11;8.87;;;3.93;;
66927;SDS011;59882;45.624;11.698;2024-03-02T11:02:46;12.13;;;4.13;;
66927;SDS011;59882;45.624;11.698;2024-03-02T11:05:20;7.90;;;3.95;;
66927;SDS011;59882;45.624;11.698;2024-03-02T11:08:02;11.07;;;4.55;;
66927;SDS011;59882;45.624;11.698;2024-03-02T11:10:36;9.82;;;4.35;;
66927;SDS011;59882;45.624;11.698;2024-03-02T11:13:08;10.93;;;4.30;;
66927;SDS011;59882;45.624;11.698;2024-03-02T11:15:34;24.85;;;10.18;;
66927;SDS011;59882;45.624;11.698;2024-03-02T11:18:03;29.98;;;13.05;;
66927;SDS011;59882;45.624;11.698;2024-03-02T11:20:33;26.27;;;12.20;;
66927;SDS011;59882;45.624;11.698;2024-03-02T11:23:07;23.30;;;10.18;;
66927;SDS011;59882;45.624;11.698;2024-03-02T11:25:34;18.83;;;7.10;;
66927;SDS011;59882;45.624;11.698;2024-03-02T11:28:01;14.95;;;6.45;;
66927;SDS011;59882;45.624;11.698;2024-03-02T11:33:03;9.75;;;5.47;;
66927;SDS011;59882;45.624;11.698;2024-03-02T11:35:36;8.85;;;5.07;;
66927;SDS011;59882;45.624;11.698;2024-03-02T11:38:03;10.60;;;4.70;;
66927;SDS011;59882;45.624;11.698;2024-03-02T11:40:29;11.50;;;5.07;;
66927;SDS011;59882;45.624;11.698;2024-03-02T11:42:56;13.90;;;5.55;;
66927;SDS011;59882;45.624;11.698;2024-03-02T11:45:24;11.40;;;4.97;;
66927;SDS011;59882;45.624;11.698;2024-03-02T11:47:51;10.93;;;5.18;;
66927;SDS011;59882;45.624;11.698;2024-03-02T11:50:30;9.80;;;4.97;;
66927;SDS011;59882;45.624;11.698;2024-03-02T11:52:58;10.63;;;4.75;;
66927;SDS011;59882;45.624;11.698;2024-03-02T11:55:25;11.43;;;5.10;;
66927;SDS011;59882;45.624;11.698;2024-03-02T11:57:54;11.52;;;3.95;;
66927;SDS011;59882;45.624;11.698;2024-03-02T12:00:20;8.40;;;3.60;;
66927;SDS011;59882;45.624;11.698;2024-03-02T12:02:47;8.20;;;3.63;;
66927;SDS011;59882;45.624;11.698;2024-03-02T12:05:31;9.45;;;3.65;;
66927;SDS011;59882;45.624;11.698;2024-03-02T12:07:58;8.75;;;3.45;;
66927;SDS011;59882;45.624;11.698;2024-03-02T12:10:25;9.30;;;3.10;;
66927;SDS011;59882;45.624;11.698;2024-03-02T12:12:58;7.68;;;3.55;;
66927;SDS011;59882;45.624;11.698;2024-03-02T12:15:25;10.70;;;4.00;;
66927;SDS011;59882;45.624;11.698;2024-03-02T12:17:59;7.82;;;3.78;;
66927;SDS011;59882;45.624;11.698;2024-03-02T12:20:26;15.50;;;4.38;;
66927;SDS011;59882;45.624;11.698;2024-03-02T12:22:54;8.63;;;3.78;;
66927;SDS011;59882;45.624;11.698;2024-03-02T12:25:23;11.93;;;4.55;;
66927;SDS011;59882;45.624;11.698;2024-03-02T12:27:50;12.43;;;7.00;;
66927;SDS011;59882;45.624;11.698;2024-03-02T12:30:17;10.90;;;5.50;;
66927;SDS011;59882;45.624;11.698;2024-03-02T12:32:46;9.13;;;5.35;;
66927;SDS011;59882;45.624;11.698;2024-03-02T12:35:12;13.38;;;5.28;;
66927;SDS011;59882;45.624;11.698;2024-03-02T12:37:45;10.48;;;5.10;;
66927;SDS011;59882;45.624;11.698;2024-03-02T12:40:15;9.50;;;5.87;;
66927;SDS011;59882;45.624;11.698;2024-03-02T12:42:45;9.43;;;5.35;;
66927;SDS011;59882;45.624;11.698;2024-03-02T12:45:11;12.43;;;5.10;;
66927;SDS011;59882;45.624;11.698;2024-03-02T12:47:39;8.85;;;4.78;;
66927;SDS011;59882;45.624;11.698;2024-03-02T12:50:06;8.80;;;4.00;;
66927;SDS011;59882;45.624;11.698;2024-03-02T12:52:32;9.93;;;3.97;;
66927;SDS011;59882;45.624;11.698;2024-03-02T12:54:59;10.45;;;4.95;;
66927;SDS011;59882;45.624;11.698;2024-03-02T12:57:28;8.85;;;4.75;;
66927;SDS011;59882;45.624;11.698;2024-03-02T13:00:01;10.70;;;4.53;;
66927;SDS011;59882;45.624;11.698;2024-03-02T13:02:39;12.05;;;5.88;;
66927;SDS011;59882;45.624;11.698;2024-03-02T13:05:06;10.43;;;4.93;;
66927;SDS011;59882;45.624;11.698;2024-03-02T13:07:36;6.68;;;3.17;;
66927;SDS011;59882;45.624;11.698;2024-03-02T13:10:02;6.22;;;2.85;;
66927;SDS011;59882;45.624;11.698;2024-03-02T13:12:29;7.50;;;2.47;;
66927;SDS011;59882;45.624;11.698;2024-03-02T13:14:57;6.97;;;2.95;;
66927;SDS011;59882;45.624;11.698;2024-03-02T13:17:23;7.30;;;2.73;;
66927;SDS011;59882;45.624;11.698;2024-03-02T13:19:55;8.15;;;2.63;;
66927;SDS011;59882;45.624;11.698;2024-03-02T13:22:22;9.90;;;3.28;;
66927;SDS011;59882;45.624;11.698;2024-03-02T13:24:48;6.65;;;3.20;;
66927;SDS011;59882;45.624;11.698;2024-03-02T13:27:14;7.30;;;3.57;;
66927;SDS011;59882;45.624;11.698;2024-03-02T13:29:41;8.40;;;4.10;;
66927;SDS011;59882;45.624;11.698;2024-03-02T13:32:07;7.57;;;3.38;;
66927;SDS011;59882;45.624;11.698;2024-03-02T13:34:34;5.43;;;2.30;;
66927;SDS011;59882;45.624;11.698;2024-03-02T13:37:01;5.65;;;2.17;;
66927;SDS011;59882;45.624;11.698;2024-03-02T13:39:27;6.30;;;2.50;;
66927;SDS011;59882;45.624;11.698;2024-03-02T13:41:52;5.32;;;1.90;;
66927;SDS011;59882;45.624;11.698;2024-03-02T13:44:26;7.32;;;1.73;;
66927;SDS011;59882;45.624;11.698;2024-03-02T13:46:52;6.47;;;2.50;;
66927;SDS011;59882;45.624;11.698;2024-03-02T13:49:18;5.00;;;2.00;;
66927;SDS011;59882;45.624;11.698;2024-03-02T13:51:43;5.47;;;2.10;;
66927;SDS011;59882;45.624;11.698;2024-03-02T13:54:10;9.30;;;2.80;;
66927;SDS011;59882;45.624;11.698;2024-03-02T13:56:36;7.05;;;2.85;;
66927;SDS011;59882;45.624;11.698;2024-03-02T13:59:04;6.75;;;2.40;;
66927;SDS011;59882;45.624;11.698;2024-03-02T14:01:30;8.13;;;3.03;;
66927;SDS011;59882;45.624;11.698;2024-03-02T14:03:57;9.80;;;3.63;;
66927;SDS011;59882;45.624;11.698;2024-03-02T14:06:23;8.25;;;3.10;;
66927;SDS011;59882;45.624;11.698;2024-03-02T14:08:51;9.45;;;3.80;;
66927;SDS011;59882;45.624;11.698;2024-03-02T14:11:16;7.03;;;2.30;;
66927;SDS011;59882;45.624;11.698;2024-03-02T14:13:42;5.38;;;2.22;;
66927;SDS011;59882;45.624;11.698;2024-03-02T14:16:09;6.18;;;2.30;;
66927;SDS011;59882;45.624;11.698;2024-03-02T14:18:35;6.68;;;2.38;;
66927;SDS011;59882;45.624;11.698;2024-03-02T14:21:01;7.20;;;2.73;;
66927;SDS011;59882;45.624;11.698;2024-03-02T14:23:28;5.95;;;2.63;;
66927;SDS011;59882;45.624;11.698;2024-03-02T14:25:54;9.33;;;3.17;;
66927;SDS011;59882;45.624;11.698;2024-03-02T14:28:20;6.80;;;3.03;;
66927;SDS011;59882;45.624;11.698;2024-03-02T14:30:46;7.17;;;3.10;;
66927;SDS011;59882;45.624;11.698;2024-03-02T14:33:11;6.85;;;2.75;;
66927;SDS011;59882;45.624;11.698;2024-03-02T14:35:38;5.78;;;2.72;;
66927;SDS011;59882;45.624;11.698;2024-03-02T14:38:04;9.07;;;3.27;;